Time;durP1;ratioP1;P1;durP2;ratioP2;P2;SDS_P1;SDS_P2;PMS_P1;PMS_P2;Temp;Humidity;BMP_temperature;BMP_pressure;BME280_temperature;BME280_humidity;BME280_pressure;Samples;Min_cycle;Max_cycle;Signal;HPM_P1;HPM_P2
2022/05/27 00:00:41;;;;;;;;;3.75;3.00;;;;;17.27;60.76;102200.41;5060774;28;45352;-65
2022/05/27 00:03:06;;;;;;;;;2.00;2.00;;;;;17.26;60.55;102197.81;5060310;28;45347;-66
2022/05/27 00:05:32;;;;;;;;;2.50;2.50;;;;;17.20;60.85;102195.38;5061098;28;45773;-65
2022/05/27 00:07:57;;;;;;;;;2.25;2.00;;;;;17.16;61.05;102192.00;5061443;28;45269;-66
2022/05/27 00:10:22;;;;;;;;;3.00;3.00;;;;;17.15;61.08;102195.53;5059732;28;45322;-65
2022/05/27 00:12:48;;;;;;;;;3.00;2.00;;;;;17.21;60.91;102183.94;5058800;28;45319;-66
2022/05/27 00:15:13;;;;;;;;;3.25;2.25;;;;;17.23;60.86;102177.78;5059034;28;45418;-67
2022/05/27 00:17:38;;;;;;;;;3.25;3.00;;;;;17.30;60.92;102189.78;5058342;28;45327;-67
2022/05/27 00:20:04;;;;;;;;;3.75;1.75;;;;;17.31;60.71;102175.75;5058756;28;45372;-67
2022/05/27 00:22:30;;;;;;;;;4.25;3.00;;;;;17.31;60.72;102191.50;5059086;28;45535;-68
2022/05/27 00:24:55;;;;;;;;;2.75;2.75;;;;;17.34;60.63;102186.16;5060107;28;45631;-67
2022/05/27 00:27:20;;;;;;;;;1.00;1.00;;;;;17.41;61.00;102185.94;5060996;28;45319;-67
2022/05/27 00:29:46;;;;;;;;;4.25;1.00;;;;;17.38;60.95;102180.78;5061451;28;45508;-66
2022/05/27 00:32:11;;;;;;;;;2.00;2.00;;;;;17.33;61.40;102168.66;5060509;28;45374;-66
2022/05/27 00:34:36;;;;;;;;;2.00;2.00;;;;;17.32;61.47;102168.72;5060959;28;45492;-67
2022/05/27 00:37:06;;;;;;;;;1.75;1.75;;;;;17.28;61.17;102164.47;5059976;28;45199;-65
2022/05/27 00:39:32;;;;;;;;;1.00;0.00;;;;;17.22;61.70;102156.78;5061291;28;45321;-67
2022/05/27 00:41:58;;;;;;;;;1.50;1.50;;;;;17.14;61.24;102162.28;5059522;28;45312;-66
2022/05/27 00:44:23;;;;;;;;;2.00;2.00;;;;;17.11;61.71;102159.75;5060499;28;46077;-66
2022/05/27 00:46:49;;;;;;;;;3.50;1.00;;;;;17.08;61.96;102162.50;5058812;28;45366;-66
2022/05/27 00:49:23;;;;;;;;;3.00;2.00;;;;;17.07;61.83;102167.78;5059538;28;45441;-66
2022/05/27 00:51:54;;;;;;;;;1.00;1.00;;;;;17.02;62.59;102158.31;5059946;28;45193;-67
2022/05/27 00:54:25;;;;;;;;;1.00;1.00;;;;;16.95;62.47;102158.53;5057523;28;46369;-65
2022/05/27 00:56:56;;;;;;;;;1.75;1.75;;;;;16.92;62.73;102156.00;5053489;28;45633;-66
2022/05/27 00:59:31;;;;;;;;;2.50;1.25;;;;;16.89;63.12;102159.59;5058530;28;45427;-66
2022/05/27 01:01:59;;;;;;;;;2.50;1.00;;;;;16.86;62.59;102161.44;5059247;28;45454;-65
2022/05/27 01:04:27;;;;;;;;;1.75;1.75;;;;;16.82;63.25;102159.81;5058063;28;45450;-65
2022/05/27 01:06:53;;;;;;;;;1.75;1.75;;;;;16.78;62.95;102158.19;5058180;28;45521;-65
2022/05/27 01:09:18;;;;;;;;;0.25;0.25;;;;;16.73;63.59;102146.06;5058212;28;45379;-65
2022/05/27 01:11:59;;;;;;;;;1.25;1.25;;;;;16.73;63.44;102151.31;5058052;28;45797;-65
2022/05/27 01:15:06;;;;;;;;;1.00;1.00;;;;;16.70;63.24;102156.66;5057851;28;45338;-66
2022/05/27 01:17:43;;;;;;;;;1.00;1.00;;;;;16.67;63.60;102151.50;5044203;28;45537;-66
2022/05/27 01:20:24;;;;;;;;;1.75;1.75;;;;;16.65;63.75;102155.06;5060282;28;45547;-66
2022/05/27 01:23:17;;;;;;;;;3.00;1.25;;;;;16.64;63.43;102155.97;5060388;28;45481;-65
2022/05/27 01:26:00;;;;;;;;;1.25;1.25;;;;;16.64;63.96;102158.59;5060306;28;45445;-66
2022/05/27 01:28:44;;;;;;;;;2.00;2.00;;;;;16.60;64.07;102151.69;5060085;28;45485;-66
2022/05/27 01:31:12;;;;;;;;;1.00;1.00;;;;;16.58;64.22;102148.25;5049000;28;45260;-65
2022/05/27 01:34:23;;;;;;;;;3.50;2.75;;;;;16.54;64.29;102150.13;5060235;28;45174;-66
2022/05/27 01:37:13;;;;;;;;;2.75;2.75;;;;;16.52;64.38;102151.06;4977766;28;46547;-67
2022/05/27 01:39:38;;;;;;;;;2.25;1.75;;;;;16.50;64.47;102148.50;4978540;28;45235;-67
2022/05/27 01:42:25;;;;;;;;;3.00;0.00;;;;;16.46;64.78;102152.13;5032801;28;45248;-65
2022/05/27 01:45:10;;;;;;;;;2.00;2.00;;;;;16.42;65.07;102146.09;5059982;28;45331;-66
2022/05/27 01:48:00;;;;;;;;;4.00;4.00;;;;;16.43;65.19;102153.06;5059989;28;47121;-66
2022/05/27 01:50:36;;;;;;;;;3.50;3.50;;;;;16.37;65.55;102149.75;5047924;28;45730;-66
2022/05/27 01:53:11;;;;;;;;;14.75;12.25;;;;;16.38;65.17;102146.22;5060063;28;45512;-66
2022/05/27 01:56:00;;;;;;;;;11.50;10.50;;;;;16.34;65.50;102144.59;5060136;28;45440;-66
2022/05/27 01:58:38;;;;;;;;;31.00;20.00;;;;;16.35;65.44;102148.94;5059513;28;45412;-66
2022/05/27 02:01:07;;;;;;;;;36.50;29.75;;;;;16.31;66.35;102152.56;5058478;28;45823;-66
2022/05/27 02:03:39;;;;;;;;;31.25;26.75;;;;;16.27;65.87;102141.28;5059877;28;45420;-66
2022/05/27 02:06:12;;;;;;;;;20.75;19.00;;;;;16.23;66.76;102144.91;5059700;28;45458;-66
2022/05/27 02:08:44;;;;;;;;;20.50;16.25;;;;;16.18;66.29;102140.69;5059912;28;46319;-66
2022/05/27 02:11:16;;;;;;;;;20.50;16.50;;;;;16.19;66.23;102137.16;5059712;28;45409;-65
2022/05/27 02:14:00;;;;;;;;;14.50;12.75;;;;;16.19;66.52;102135.38;5059522;28;45327;-65
2022/05/27 02:16:32;;;;;;;;;10.00;9.00;;;;;16.15;66.70;102135.53;5059759;28;45291;-65
2022/05/27 02:19:24;;;;;;;;;7.50;7.50;;;;;16.14;67.02;102139.91;5058999;28;45564;-65
2022/05/27 02:21:56;;;;;;;;;6.75;6.00;;;;;16.12;66.54;102141.72;5059197;28;45174;-65
2022/05/27 02:24:36;;;;;;;;;6.25;5.75;;;;;16.10;67.23;102152.25;5059656;28;45291;-67
2022/05/27 02:27:11;;;;;;;;;3.25;2.50;;;;;16.14;66.75;102139.91;5060861;28;45217;-67
2022/05/27 02:29:38;;;;;;;;;7.25;5.00;;;;;16.19;66.83;102145.88;5063218;28;46514;-67
2022/05/27 02:32:12;;;;;;;;;3.00;3.00;;;;;16.26;66.65;102143.97;5062936;28;45334;-67
2022/05/27 02:37:35;;;;;;;;;4.50;2.00;;;;;16.34;66.58;102145.44;5060734;28;45566;-66
2022/05/27 02:40:06;;;;;;;;;5.75;2.00;;;;;16.39;66.54;102154.03;5060333;28;45509;-66
2022/05/27 02:42:40;;;;;;;;;5.75;1.50;;;;;16.41;66.90;102149.59;5060423;28;45430;-65
2022/05/27 02:45:17;;;;;;;;;3.00;3.00;;;;;16.38;66.94;102148.84;5060491;28;45609;-65
2022/05/27 02:48:08;;;;;;;;;4.25;2.25;;;;;16.42;66.57;102145.25;5060471;28;45480;-65
2022/05/27 02:50:43;;;;;;;;;5.75;4.00;;;;;16.48;66.54;102152.94;5043695;28;45417;-65
2022/05/27 02:53:20;;;;;;;;;2.00;2.00;;;;;16.49;66.82;102152.03;5061941;28;45356;-65
2022/05/27 02:55:58;;;;;;;;;3.00;1.75;;;;;16.40;66.81;102147.03;5058441;28;45221;-65
2022/05/27 02:58:23;;;;;;;;;3.00;3.00;;;;;16.30;66.69;102140.34;5062439;28;45369;-66
2022/05/27 03:00:48;;;;;;;;;3.25;2.50;;;;;16.28;67.47;102147.41;5062453;28;45331;-66
2022/05/27 03:03:14;;;;;;;;;7.00;2.75;;;;;16.23;67.96;102146.69;5062360;28;45376;-65
2022/05/27 03:06:05;;;;;;;;;2.75;2.00;;;;;16.16;67.76;102145.97;5062620;28;45356;-67
2022/05/27 03:08:44;;;;;;;;;5.00;3.00;;;;;16.07;68.26;102147.09;5062737;28;45388;-67
2022/05/27 03:11:15;;;;;;;;;3.25;2.00;;;;;16.06;67.63;102152.41;5062337;28;45346;-67
2022/05/27 03:13:59;;;;;;;;;3.00;2.75;;;;;16.05;67.86;102150.69;5062383;28;45397;-66
2022/05/27 03:16:59;;;;;;;;;3.25;3.25;;;;;15.99;67.77;102151.69;5062554;28;45311;-66
2022/05/27 03:19:27;;;;;;;;;3.75;3.25;;;;;15.95;67.90;102154.44;5049090;28;45328;-67
2022/05/27 03:22:09;;;;;;;;;5.25;4.50;;;;;15.89;68.28;102152.00;5062404;28;45262;-66
2022/05/27 03:25:20;;;;;;;;;3.50;3.00;;;;;15.84;68.26;102141.63;5049755;28;45447;-66
2022/05/27 03:28:00;;;;;;;;;4.25;4.00;;;;;15.81;67.75;102141.69;5030723;28;45544;-66
2022/05/27 03:30:37;;;;;;;;;9.00;7.25;;;;;15.77;67.99;102142.69;5062161;28;45328;-66
2022/05/27 03:33:23;;;;;;;;;8.25;7.00;;;;;15.74;67.57;102145.38;5062047;28;46058;-67
2022/05/27 03:36:15;;;;;;;;;8.75;7.75;;;;;15.75;67.27;102150.59;5062229;28;45509;-68
2022/05/27 03:38:52;;;;;;;;;9.00;7.00;;;;;15.77;67.38;102142.69;5057687;28;45668;-67
2022/05/27 03:41:31;;;;;;;;;8.50;8.00;;;;;15.77;67.05;102134.81;5062150;28;45321;-67
2022/05/27 03:43:57;;;;;;;;;13.50;10.50;;;;;15.81;67.07;102139.94;5061828;28;45320;-66
2022/05/27 03:46:35;;;;;;;;;11.25;8.75;;;;;15.93;66.95;102157.09;5061931;28;45240;-66
2022/05/27 03:49:02;;;;;;;;;9.25;8.50;;;;;16.02;66.98;102146.38;5062038;28;45280;-66
2022/05/27 03:51:50;;;;;;;;;9.25;8.50;;;;;16.02;66.98;102150.75;5061426;28;45485;-66
2022/05/27 03:54:16;;;;;;;;;11.00;8.50;;;;;16.08;66.38;102146.19;5061619;28;45678;-66
2022/05/27 03:56:42;;;;;;;;;9.00;7.00;;;;;16.13;66.87;102149.53;5061420;28;45283;-66
2022/05/27 03:59:11;;;;;;;;;9.00;8.25;;;;;16.09;67.09;102153.16;5061638;28;45374;-65
2022/05/27 04:01:39;;;;;;;;;9.75;9.00;;;;;16.12;67.23;102155.69;5061715;28;46316;-65
2022/05/27 04:04:08;;;;;;;;;7.75;7.00;;;;;16.14;67.20;102147.78;5056466;28;47773;-65
2022/05/27 04:06:34;;;;;;;;;8.75;7.00;;;;;16.18;67.26;102148.56;5061586;28;45343;-65
2022/05/27 04:08:59;;;;;;;;;6.25;5.75;;;;;16.21;66.96;102148.47;5061640;28;45313;-65
2022/05/27 04:11:27;;;;;;;;;8.00;6.25;;;;;16.23;67.29;102149.31;5061444;28;45334;-65
2022/05/27 04:13:53;;;;;;;;;10.50;7.00;;;;;16.24;67.31;102144.00;5061280;28;47185;-65
2022/05/27 04:16:18;;;;;;;;;9.00;6.00;;;;;16.23;67.35;102147.53;5061546;28;45323;-66
2022/05/27 04:18:43;;;;;;;;;6.75;4.50;;;;;16.22;67.27;102145.81;5060815;28;45223;-66
2022/05/27 04:21:09;;;;;;;;;7.25;4.50;;;;;16.25;67.18;102150.97;5061064;28;45255;-67
2022/05/27 04:23:35;;;;;;;;;8.25;5.50;;;;;16.22;67.54;102160.66;5061015;28;46192;-67
2022/05/27 04:26:01;;;;;;;;;7.00;5.50;;;;;16.16;67.47;102159.09;5060878;28;45299;-68
2022/05/27 04:28:26;;;;;;;;;7.00;5.25;;;;;16.13;68.07;102160.03;5060414;28;46676;-69
2022/05/27 04:30:52;;;;;;;;;8.50;6.00;;;;;16.16;67.66;102159.09;5060763;28;45765;-66
2022/05/27 04:33:17;;;;;;;;;4.75;4.50;;;;;16.17;67.76;102154.69;5060819;28;45516;-63
2022/05/27 04:35:43;;;;;;;;;6.25;6.25;;;;;16.19;68.06;102166.00;5060922;28;45382;-64
2022/05/27 04:38:09;;;;;;;;;8.75;6.00;;;;;16.16;68.49;102166.97;5058352;28;45277;-66
2022/05/27 04:40:35;;;;;;;;;6.75;5.00;;;;;16.13;68.13;102165.28;5060917;28;45310;-67
2022/05/27 04:43:02;;;;;;;;;3.00;3.00;;;;;16.17;68.05;102157.31;5060472;28;46282;-67
2022/05/27 04:45:27;;;;;;;;;8.75;6.00;;;;;16.21;68.05;102158.94;5061035;28;45339;-66
2022/05/27 04:47:53;;;;;;;;;6.50;5.00;;;;;16.16;68.18;102159.09;5061017;28;45283;-69
2022/05/27 04:50:19;;;;;;;;;7.00;6.50;;;;;16.17;67.99;102166.06;5059954;28;45291;-68
2022/05/27 04:52:44;;;;;;;;;8.25;5.25;;;;;16.18;68.14;102159.03;5060628;28;45686;-67
2022/05/27 04:55:12;;;;;;;;;8.75;5.50;;;;;16.21;68.29;102164.19;5093360;27;45238;-67
2022/05/27 04:57:40;;;;;;;;;10.50;7.25;;;;;16.21;67.94;102172.06;5060330;28;45492;-67
2022/05/27 05:00:16;;;;;;;;;8.75;8.00;;;;;16.24;68.14;102154.50;5060869;28;45244;-68
2022/05/27 05:02:42;;;;;;;;;8.50;8.25;;;;;16.24;68.09;102157.13;5060271;28;46994;-64
2022/05/27 05:05:09;;;;;;;;;9.50;8.00;;;;;16.22;68.64;102156.31;5060398;28;45271;-68
2022/05/27 05:07:36;;;;;;;;;5.50;5.50;;;;;16.17;68.81;102167.81;5060467;28;45234;-67
2022/05/27 05:10:01;;;;;;;;;11.75;8.00;;;;;16.13;68.50;102153.94;5060549;28;45223;-67
2022/05/27 05:12:27;;;;;;;;;11.00;9.00;;;;;16.15;68.50;102172.25;5059596;28;45336;-67
2022/05/27 05:14:53;;;;;;;;;11.25;9.00;;;;;16.11;68.95;102161.84;5060073;28;45205;-67
2022/05/27 05:17:19;;;;;;;;;12.75;7.00;;;;;16.09;68.63;102155.78;5060235;28;45446;-64
2022/05/27 05:19:45;;;;;;;;;11.00;8.50;;;;;16.08;68.89;102168.94;5058034;28;45494;-64
2022/05/27 05:22:10;;;;;;;;;11.50;8.25;;;;;16.04;69.40;102162.94;5058061;28;47994;-64
2022/05/27 05:24:35;;;;;;;;;10.25;8.75;;;;;16.07;68.77;102165.47;5060281;28;45358;-65
2022/05/27 05:27:01;;;;;;;;;9.50;7.00;;;;;16.17;69.28;102171.28;5059986;28;45335;-64
2022/05/27 05:29:26;;;;;;;;;11.50;9.75;;;;;16.16;69.18;102160.84;5060444;28;45434;-63
2022/05/27 05:31:52;;;;;;;;;9.50;8.75;;;;;16.11;69.54;102167.09;5060022;28;46338;-64
2022/05/27 05:34:18;;;;;;;;;11.00;7.25;;;;;16.10;69.38;102172.38;5060006;28;45337;-64
2022/05/27 05:36:43;;;;;;;;;10.75;10.00;;;;;16.06;69.75;102168.13;5059888;28;45316;-64
2022/05/27 05:39:08;;;;;;;;;16.50;12.50;;;;;15.95;70.31;102164.94;5060063;28;45296;-64
2022/05/27 05:41:37;;;;;;;;;11.75;8.50;;;;;15.87;70.51;102162.53;5059635;28;45518;-64
2022/05/27 05:44:05;;;;;;;;;12.50;10.00;;;;;15.85;70.37;102163.47;5059650;28;45346;-63
2022/05/27 05:46:36;;;;;;;;;17.25;10.25;;;;;15.91;70.29;102164.16;5092398;27;45403;-64
2022/05/27 05:49:05;;;;;;;;;12.00;10.00;;;;;15.95;70.74;102168.41;5059570;28;45506;-64
2022/05/27 05:51:31;;;;;;;;;18.50;14.50;;;;;15.97;70.32;102163.97;5059467;28;45437;-64
2022/05/27 05:53:56;;;;;;;;;17.25;12.75;;;;;16.01;70.74;102167.38;5058623;28;45721;-64
2022/05/27 05:56:22;;;;;;;;;19.25;13.75;;;;;16.02;70.66;102166.50;5059612;28;45429;-64
2022/05/27 05:58:50;;;;;;;;;18.50;14.50;;;;;16.02;70.64;102172.59;5059831;28;45320;-64
2022/05/27 06:01:16;;;;;;;;;17.75;14.25;;;;;16.02;70.88;102175.22;5058078;28;47050;-67
2022/05/27 06:03:41;;;;;;;;;19.75;18.00;;;;;15.99;71.17;102167.41;5059373;28;45671;-65
2022/05/27 06:06:06;;;;;;;;;20.50;16.75;;;;;15.93;70.88;102170.22;5057773;28;45325;-65
2022/05/27 06:08:32;;;;;;;;;20.50;17.75;;;;;15.92;71.42;102158.00;5059470;28;45245;-65
2022/05/27 06:10:57;;;;;;;;;24.25;15.50;;;;;15.94;71.68;102174.56;5059029;28;45433;-65
2022/05/27 06:13:25;;;;;;;;;18.50;16.75;;;;;15.97;70.90;102168.38;5058647;28;45533;-65
2022/05/27 06:15:51;;;;;;;;;19.00;19.00;;;;;16.00;70.84;102165.66;5059423;28;45350;-65
2022/05/27 06:18:16;;;;;;;;;23.75;22.75;;;;;16.03;71.02;102169.06;5059279;28;45330;-65
2022/05/27 06:20:42;;;;;;;;;27.25;22.25;;;;;16.07;70.81;102170.72;5059019;28;45416;-65
2022/05/27 06:23:08;;;;;;;;;24.00;21.00;;;;;16.10;71.28;102168.00;5059447;28;45337;-65
2022/05/27 06:25:34;;;;;;;;;21.50;18.50;;;;;16.04;71.27;102162.94;5059456;28;45239;-65
2022/05/27 06:36:13;;;;;;;;;21.50;17.00;;;;;16.24;71.14;102185.13;5059349;28;45414;-64
2022/05/27 06:38:39;;;;;;;;;25.25;21.50;;;;;16.22;71.04;102184.28;5058533;28;45259;-64
2022/05/27 06:41:04;;;;;;;;;18.50;15.50;;;;;16.26;71.36;102191.19;5058859;28;46078;-65
2022/05/27 06:43:31;;;;;;;;;19.00;15.25;;;;;16.26;71.22;102186.78;5058807;28;45252;-65
2022/05/27 06:45:57;;;;;;;;;16.75;15.75;;;;;16.21;71.19;102187.81;5059521;28;45237;-65
2022/05/27 06:48:22;;;;;;;;;21.75;17.75;;;;;16.20;71.13;102188.72;5058435;28;45493;-65
2022/05/27 06:50:48;;;;;;;;;14.25;13.75;;;;;16.30;71.02;102183.19;5058320;28;46379;-65
2022/05/27 06:53:13;;;;;;;;;20.00;17.25;;;;;16.33;70.79;102187.47;5058258;28;45394;-65
2022/05/27 06:55:38;;;;;;;;;17.25;13.75;;;;;16.39;70.68;102182.91;5058557;28;45389;-64
2022/05/27 06:58:04;;;;;;;;;18.00;14.25;;;;;16.49;70.35;102180.88;5058073;28;45694;-64
2022/05/27 07:00:29;;;;;;;;;17.75;13.25;;;;;16.54;70.28;102173.72;5059225;28;45406;-63
2022/05/27 07:02:55;;;;;;;;;17.00;15.75;;;;;16.63;69.96;102180.50;5058637;28;45469;-63
2022/05/27 07:05:21;;;;;;;;;15.25;11.25;;;;;16.73;70.14;102176.69;5059428;28;45309;-63
2022/05/27 07:07:46;;;;;;;;;14.75;12.75;;;;;16.94;69.85;102177.81;5058743;28;45261;-65
2022/05/27 07:10:12;;;;;;;;;9.50;8.50;;;;;17.16;69.26;102183.25;5058499;28;45362;-64
2022/05/27 07:12:39;;;;;;;;;15.75;12.75;;;;;17.32;68.31;102185.34;5059687;28;45375;-65
2022/05/27 07:15:04;;;;;;;;;10.25;7.75;;;;;17.45;67.70;102174.44;5062389;28;45280;-68
2022/05/27 07:17:30;;;;;;;;;15.00;11.75;;;;;17.63;68.03;102179.09;5062401;28;45485;-70
2022/05/27 07:19:55;;;;;;;;;15.50;10.00;;;;;17.86;68.19;102175.69;5061778;28;46672;-66
2022/05/27 07:22:20;;;;;;;;;9.25;9.00;;;;;18.06;67.24;102178.47;5062048;28;45453;-68
2022/05/27 07:24:46;;;;;;;;;16.75;12.50;;;;;18.20;66.43;102181.44;5062454;28;45284;-68
2022/05/27 07:27:11;;;;;;;;;8.25;8.00;;;;;18.29;66.71;102177.63;5061709;28;45493;-69
2022/05/27 07:29:37;;;;;;;;;13.75;13.00;;;;;18.42;65.93;102181.53;5062190;28;45255;-68
2022/05/27 07:32:03;;;;;;;;;13.75;12.25;;;;;18.41;64.97;102187.69;5060156;28;45311;-66
2022/05/27 07:34:28;;;;;;;;;12.00;9.75;;;;;18.47;65.20;102182.22;5062034;28;45296;-64
2022/05/27 07:36:54;;;;;;;;;12.00;8.00;;;;;18.55;64.31;102187.19;5059033;28;45540;-63
2022/05/27 07:39:19;;;;;;;;;14.25;13.25;;;;;18.51;64.39;102189.09;5061836;28;45465;-63
2022/05/27 07:41:44;;;;;;;;;11.25;8.25;;;;;18.54;64.42;102182.84;5059993;28;45745;-63
2022/05/27 07:44:10;;;;;;;;;14.00;8.00;;;;;18.61;64.36;102178.19;5061394;28;45291;-63
2022/05/27 07:46:37;;;;;;;;;12.00;12.00;;;;;18.68;64.03;102177.09;5061220;28;45344;-63
2022/05/27 07:49:04;;;;;;;;;10.00;9.25;;;;;18.63;63.85;102179.06;5061666;28;45378;-62
2022/05/27 07:51:30;;;;;;;;;11.75;10.00;;;;;18.59;63.86;102178.25;5061163;28;45642;-62
2022/05/27 07:53:56;;;;;;;;;17.25;14.25;;;;;18.63;64.33;102179.91;5061721;28;45308;-63
2022/05/27 07:56:21;;;;;;;;;13.00;11.00;;;;;18.75;63.86;102176.78;5060575;28;45306;-64
2022/05/27 07:58:47;;;;;;;;;14.75;12.00;;;;;18.85;62.92;102182.56;5093012;27;48152;-64
2022/05/27 08:01:13;;;;;;;;;13.00;12.00;;;;;18.84;63.08;102181.72;5060788;28;45527;-63
2022/05/27 08:03:41;;;;;;;;;14.00;10.25;;;;;18.76;63.42;102186.41;5060684;28;45265;-63
2022/05/27 08:06:07;;;;;;;;;12.75;11.00;;;;;18.71;63.07;102174.34;5060995;28;45609;-62
2022/05/27 08:08:33;;;;;;;;;13.50;12.50;;;;;18.73;62.92;102177.75;5061533;28;45291;-62
2022/05/27 08:10:58;;;;;;;;;15.25;12.75;;;;;18.79;63.61;102172.25;5061147;28;45201;-62
2022/05/27 08:13:24;;;;;;;;;13.50;10.75;;;;;18.81;62.66;102186.22;5061354;28;45239;-62
2022/05/27 08:15:52;;;;;;;;;12.75;10.25;;;;;18.76;62.67;102178.50;5061314;28;45215;-65
2022/05/27 08:18:17;;;;;;;;;13.25;10.25;;;;;18.67;62.99;102183.28;5060644;28;46516;-63
2022/05/27 08:20:43;;;;;;;;;15.50;12.00;;;;;18.58;63.04;102186.22;5060272;28;45576;-65
2022/05/27 08:23:08;;;;;;;;;13.25;11.75;;;;;18.62;63.33;102183.44;5061491;28;45423;-63
2022/05/27 08:25:36;;;;;;;;;9.00;8.25;;;;;18.71;63.35;102188.38;5059833;28;45485;-63
2022/05/27 08:28:02;;;;;;;;;13.50;12.50;;;;;18.87;63.27;102191.28;5075421;28;47337;-65
2022/05/27 08:30:31;;;;;;;;;14.50;11.50;;;;;19.00;62.85;102187.22;5059413;28;45439;-63
2022/05/27 08:32:58;;;;;;;;;12.00;10.00;;;;;19.08;62.76;102182.50;5057027;28;45240;-63
2022/05/27 08:38:14;;;;;;;;;8.00;8.00;;;;;19.25;62.43;102189.75;5058614;28;45885;-64
2022/05/27 08:40:58;;;;;;;;;12.50;9.50;;;;;19.22;62.30;102187.25;5056671;28;46166;-65
2022/05/27 08:43:40;;;;;;;;;7.75;7.75;;;;;19.20;62.48;102177.66;5057081;28;45541;-64
2022/05/27 08:46:23;;;;;;;;;12.50;10.25;;;;;19.21;62.81;102176.72;5056929;28;45489;-64
2022/05/27 08:48:54;;;;;;;;;9.25;8.00;;;;;19.24;62.49;102189.81;5058111;28;45695;-65
2022/05/27 08:51:35;;;;;;;;;10.75;10.00;;;;;19.10;62.92;102190.34;5056931;28;45224;-64
2022/05/27 08:54:10;;;;;;;;;10.75;9.00;;;;;19.04;62.90;102191.47;5057299;28;45380;-62
2022/05/27 08:59:31;;;;;;;;;9.25;8.25;;;;;18.90;63.68;102191.16;5057491;28;45453;-62
2022/05/27 09:02:06;;;;;;;;;9.00;8.75;;;;;18.87;63.83;102185.16;5056922;28;45526;-62
2022/05/27 09:04:46;;;;;;;;;12.50;9.25;;;;;18.90;63.45;102191.16;5058741;28;45338;-62
2022/05/27 09:07:17;;;;;;;;;9.00;7.00;;;;;18.95;63.93;102190.97;5059402;28;45493;-63
2022/05/27 09:09:43;;;;;;;;;13.75;8.75;;;;;18.92;63.95;102189.31;5058200;28;46640;-63
2022/05/27 09:12:30;;;;;;;;;10.25;8.75;;;;;18.98;63.84;102182.94;5090751;27;45905;-63
2022/05/27 09:15:20;;;;;;;;;9.25;8.00;;;;;19.11;63.49;102195.56;5057554;28;45424;-63
2022/05/27 09:18:14;;;;;;;;;9.00;6.25;;;;;19.10;63.74;102193.84;5058192;28;45239;-62
2022/05/27 09:20:46;;;;;;;;;8.75;8.50;;;;;19.09;63.78;102191.28;5043831;28;46532;-63
2022/05/27 09:23:29;;;;;;;;;7.00;4.75;;;;;19.07;63.49;102204.53;5058716;28;45387;-65
2022/05/27 09:25:54;;;;;;;;;6.75;5.75;;;;;19.08;63.80;102193.06;5057151;28;45437;-63
2022/05/27 09:28:45;;;;;;;;;8.00;6.33;;;;;19.10;64.08;102193.84;5058620;28;45486;-64
2022/05/27 09:31:15;;;;;;;;;7.00;6.00;;;;;19.22;63.79;102191.63;5056921;28;46566;-64
2022/05/27 09:33:43;;;;;;;;;10.00;7.75;;;;;19.25;64.00;102191.53;5058363;28;45252;-63
2022/05/27 09:36:14;;;;;;;;;5.00;5.00;;;;;19.23;64.00;102180.19;5058672;28;45390;-64
2022/05/27 09:38:50;;;;;;;;;7.75;6.50;;;;;19.39;63.40;102189.16;5058656;28;45458;-63
2022/05/27 09:41:23;;;;;;;;;9.00;8.50;;;;;19.48;63.70;102183.53;5058739;28;46280;-62
2022/05/27 09:43:56;;;;;;;;;9.25;8.00;;;;;19.70;63.25;102188.78;5056424;28;45241;-63
2022/05/27 09:46:30;;;;;;;;;7.75;7.00;;;;;19.92;62.61;102186.06;5058497;28;45397;-63
2022/05/27 09:48:57;;;;;;;;;6.50;6.00;;;;;20.08;62.32;102187.13;5055976;28;45398;-64
2022/05/27 09:51:24;;;;;;;;;11.00;7.25;;;;;20.18;61.26;102188.41;5058002;28;45426;-64
2022/05/27 09:53:53;;;;;;;;;7.00;7.00;;;;;20.18;61.26;102188.41;5058432;28;45618;-64
2022/05/27 09:56:46;;;;;;;;;6.50;6.00;;;;;20.20;61.51;102199.75;5058289;28;45689;-64
2022/05/27 09:59:24;;;;;;;;;5.50;4.75;;;;;20.21;61.25;102184.78;5056427;28;45335;-64
2022/05/27 10:01:49;;;;;;;;;8.00;7.00;;;;;20.23;60.79;102190.88;5056087;28;45534;-63
2022/05/27 10:04:17;;;;;;;;;7.75;6.00;;;;;20.12;61.12;102188.69;5057878;28;45284;-62
2022/05/27 10:06:43;;;;;;;;;6.75;6.00;;;;;20.13;61.51;102185.13;5058499;28;45375;-64
2022/05/27 10:09:30;;;;;;;;;8.50;7.50;;;;;20.33;60.84;102168.41;5057958;28;45225;-64
2022/05/27 10:11:58;;;;;;;;;5.25;5.00;;;;;20.55;61.06;102171.78;5057674;28;45272;-64
2022/05/27 10:14:29;;;;;;;;;5.75;5.25;;;;;20.88;59.02;102176.44;5057881;28;45399;-62
2022/05/27 10:17:25;;;;;;;;;6.00;6.00;;;;;21.18;59.99;102169.66;5059186;28;45296;-63
2022/05/27 10:19:51;;;;;;;;;3.50;3.50;;;;;21.58;59.06;102169.47;5058767;28;45280;-62
2022/05/27 10:22:26;;;;;;;;;6.50;4.75;;;;;21.79;58.19;102165.72;5057599;28;46221;-63
2022/05/27 10:25:07;;;;;;;;;6.00;6.00;;;;;21.90;57.04;102168.69;5059453;28;45588;-63
2022/05/27 10:27:36;;;;;;;;;5.00;5.00;;;;;21.88;57.00;102159.97;5059100;28;45265;-66
2022/05/27 10:30:26;;;;;;;;;4.75;4.25;;;;;21.80;56.93;102162.16;5059108;28;45141;-68
2022/05/27 10:32:53;;;;;;;;;12.50;7.00;;;;;21.68;56.97;102162.78;5049105;28;46742;-68
2022/05/27 10:35:37;;;;;;;;;6.25;5.25;;;;;21.49;56.97;102166.38;5058561;28;45636;-71
2022/05/27 10:38:23;;;;;;;;;11.25;7.00;;;;;21.37;57.16;102174.06;5059159;28;45488;-71
2022/05/27 10:41:14;;;;;;;;;10.75;6.50;;;;;21.34;57.28;102172.44;5058959;28;45273;-73
2022/05/27 10:44:01;;;;;;;;;7.25;6.50;;;;;21.31;57.24;102175.22;5051682;28;46808;-72
2022/05/27 10:46:33;;;;;;;;;9.25;6.75;;;;;21.18;57.57;102172.28;5058485;28;45450;-73
2022/05/27 10:49:12;;;;;;;;;9.00;6.00;;;;;21.05;57.85;102168.56;5062099;28;45368;-71
2022/05/27 10:52:08;;;;;;;;;5.00;5.00;;;;;21.05;57.80;102176.47;5062303;28;45535;-76
2022/05/27 10:54:44;;;;;;;;;7.00;6.00;;;;;21.05;57.88;102172.97;5062649;28;45384;-70
2022/05/27 11:03:24;;;;;;;;;5.25;5.25;;;;;21.71;58.58;102173.22;5061508;28;45576;-66
2022/05/27 11:06:14;;;;;;;;;5.75;5.75;;;;;21.76;57.15;102176.47;5059191;28;45481;-65
2022/05/27 11:09:05;;;;;;;;;7.00;6.25;;;;;21.82;57.05;102169.09;5060899;28;45201;-66
2022/05/27 11:11:43;;;;;;;;;7.00;6.75;;;;;21.73;57.12;102171.34;5059198;28;45421;-64
2022/05/27 11:17:11;;;;;;;;;5.75;5.75;;;;;21.32;56.96;102171.66;5062240;28;45338;-66
2022/05/27 11:19:57;;;;;;;;;7.50;7.25;;;;;21.21;57.11;102168.63;5059150;28;45468;-66
2022/05/27 11:22:31;;;;;;;;;7.75;6.00;;;;;21.12;57.47;102169.09;5058864;28;45525;-66
2022/05/27 11:25:25;;;;;;;;;6.75;6.00;;;;;21.11;57.70;102168.25;5059739;28;45533;-66
2022/05/27 11:28:11;;;;;;;;;7.25;7.00;;;;;21.06;58.21;102174.69;5059423;28;45540;-66
2022/05/27 11:30:49;;;;;;;;;7.25;6.75;;;;;21.09;58.02;102158.69;5059512;28;45442;-66
2022/05/27 11:33:39;;;;;;;;;6.75;5.00;;;;;21.19;58.01;102166.06;5060258;28;45470;-67
2022/05/27 11:36:13;;;;;;;;;10.00;7.00;;;;;21.20;57.55;102157.19;5061311;28;45576;-67
2022/05/27 11:38:56;;;;;;;;;9.75;8.00;;;;;21.19;57.62;102155.50;5060336;28;45515;-66
2022/05/27 11:41:37;;;;;;;;;6.75;5.75;;;;;21.20;57.43;102157.19;5060646;28;45329;-68
2022/05/27 11:44:33;;;;;;;;;7.50;7.00;;;;;21.23;57.45;102151.78;5093281;27;45428;-67
2022/05/27 11:47:05;;;;;;;;;8.25;8.25;;;;;21.33;57.49;102152.22;5059974;28;45244;-66
2022/05/27 11:50:03;;;;;;;;;8.75;7.75;;;;;21.35;57.02;102152.13;5060577;28;45295;-66
2022/05/27 11:52:45;;;;;;;;;8.75;7.00;;;;;21.28;57.58;102142.81;5061816;28;45366;-66
2022/05/27 11:55:19;;;;;;;;;8.25;7.50;;;;;21.33;57.41;102149.56;5059672;28;45480;-66
2022/05/27 11:57:53;;;;;;;;;7.75;7.50;;;;;21.38;57.18;102141.38;5057117;28;45419;-66
2022/05/27 12:00:24;;;;;;;;;8.00;7.00;;;;;21.60;57.44;102136.72;5056698;28;45639;-66
2022/05/27 12:03:09;;;;;;;;;9.75;8.25;;;;;21.83;57.25;102139.03;5058601;28;45414;-67
2022/05/27 12:05:40;;;;;;;;;11.75;10.00;;;;;21.88;56.75;102144.09;5058737;28;45493;-65
2022/05/27 12:08:31;;;;;;;;;8.00;8.00;;;;;21.66;56.05;102143.50;5058832;28;45319;-65